Time;durP1;ratioP1;P1;durP2;ratioP2;P2;SDS_P1;SDS_P2;PMS_P1;PMS_P2;Temp;Humidity;BMP_temperature;BMP_pressure;BME280_temperature;BME280_humidity;BME280_pressure;Samples;Min_cycle;Max_cycle;Signal;HPM_P1;HPM_P2
2023/01/06 00:01:07;;;;;;;1.55;1.45;;;;;;;-18.77;75.82;98665.13;4955569;28;20048;-86
2023/01/06 00:03:35;;;;;;;1.30;1.25;;;;;;;-18.82;75.94;98675.63;4955918;28;20051;-86
2023/01/06 00:06:03;;;;;;;1.67;1.58;;;;;;;-18.84;75.88;98678.25;4950103;28;20426;-86
2023/01/06 00:08:30;;;;;;;1.52;1.42;;;;;;;-18.92;75.76;98684.66;4957556;28;20057;-86
2023/01/06 00:10:57;;;;;;;1.60;1.50;;;;;;;-18.95;75.94;98685.63;4928683;29;20111;-86
2023/01/06 00:13:24;;;;;;;1.60;1.50;;;;;;;-19.04;75.63;98688.59;4958978;28;20144;-84
2023/01/06 00:15:51;;;;;;;1.60;1.50;;;;;;;-19.13;75.65;98697.56;4922207;29;20118;-85
2023/01/06 00:18:18;;;;;;;1.77;1.67;;;;;;;-19.19;75.61;98700.41;4959551;28;20055;-84
2023/01/06 00:20:46;;;;;;;1.67;1.58;;;;;;;-19.23;75.54;98707.44;4950922;28;20509;-85
2023/01/06 00:23:14;;;;;;;1.60;1.50;;;;;;;-19.33;75.36;98711.28;4958653;28;20092;-84
2023/01/06 00:25:49;;;;;;;1.50;1.40;;;;;;;-19.35;75.62;98719.97;4960093;28;20058;-84
2023/01/06 00:28:16;;;;;;;1.63;1.52;;;;;;;-19.44;75.46;98718.63;4955211;28;20399;-85
2023/01/06 00:30:43;;;;;;;1.42;1.33;;;;;;;-19.40;75.37;98720.16;4967937;28;20058;-86
2023/01/06 00:33:11;;;;;;;1.30;1.20;;;;;;;-19.46;75.30;98725.56;4978252;28;20086;-85
2023/01/06 00:35:40;;;;;;;1.40;1.30;;;;;;;-19.54;75.39;98723.31;4945398;29;20054;-84
2023/01/06 00:38:07;;;;;;;1.52;1.42;;;;;;;-19.50;75.24;98734.31;4964721;28;20069;-84
2023/01/06 00:40:36;;;;;;;1.20;1.20;;;;;;;-19.56;75.10;98732.00;4958413;28;20146;-85
2023/01/06 00:43:04;;;;;;;1.45;1.35;;;;;;;-19.56;75.08;98737.13;4959281;28;20050;-86
2023/01/06 00:45:31;;;;;;;1.40;1.30;;;;;;;-19.58;75.33;98751.78;4961306;28;20142;-85
2023/01/06 00:47:58;;;;;;;1.52;1.42;;;;;;;-19.59;75.24;98755.22;4970130;28;20525;-84
2023/01/06 00:50:26;;;;;;;1.40;1.30;;;;;;;-19.64;74.86;98752.00;4967708;28;20057;-85
2023/01/06 00:52:53;;;;;;;1.50;1.40;;;;;;;-19.66;74.79;98746.16;4965458;28;20074;-85
2023/01/06 00:55:20;;;;;;;1.52;1.42;;;;;;;-19.70;74.47;98751.41;4964751;28;20043;-86
2023/01/06 00:57:51;;;;;;;1.30;1.20;;;;;;;-19.68;74.57;98759.88;4972780;28;20059;-86
2023/01/06 01:00:19;;;;;;;1.50;1.40;;;;;;;-19.76;74.39;98758.53;4952721;28;20051;-86
2023/01/06 01:02:47;;;;;;;1.60;1.50;;;;;;;-19.87;74.43;98758.13;4940113;28;20039;-85
2023/01/06 01:05:14;;;;;;;1.48;1.38;;;;;;;-19.89;74.51;98768.47;4926066;29;20057;-85
2023/01/06 01:07:43;;;;;;;1.30;1.20;;;;;;;-19.93;74.47;98775.44;4926669;29;20462;-85
2023/01/06 01:10:10;;;;;;;1.63;1.52;;;;;;;-20.01;74.74;98774.09;4954557;29;20047;-86
2023/01/06 01:12:38;;;;;;;1.75;1.65;;;;;;;-19.99;74.60;98796.25;4937087;29;20059;-84
2023/01/06 01:15:06;;;;;;;1.50;1.40;;;;;;;-20.04;74.76;98794.75;4953261;29;20425;-85
2023/01/06 01:17:34;;;;;;;1.70;1.60;;;;;;;-20.06;74.83;98788.84;4954109;29;20082;-85
2023/01/06 01:20:01;;;;;;;1.55;1.45;;;;;;;-20.09;74.84;98792.38;4937206;29;20055;-85
2023/01/06 01:22:30;;;;;;;1.50;1.40;;;;;;;-20.11;74.91;98796.72;4953109;29;20051;-86
2023/01/06 01:24:59;;;;;;;1.70;1.60;;;;;;;-20.17;74.69;98800.34;4935868;29;20074;-85
2023/01/06 01:27:30;;;;;;;1.58;1.48;;;;;;;-20.23;74.97;98803.13;4952782;29;20047;-84
2023/01/06 01:29:58;;;;;;;1.40;1.30;;;;;;;-20.22;74.98;98809.13;4951979;29;20055;-84
2023/01/06 01:32:25;;;;;;;1.60;1.50;;;;;;;-20.32;74.88;98806.06;4952863;29;20078;-83
2023/01/06 01:34:52;;;;;;;1.70;1.60;;;;;;;-20.34;74.89;98797.59;4917363;29;20044;-86
2023/01/06 01:37:19;;;;;;;1.40;1.30;;;;;;;-20.33;74.92;98814.66;4922132;29;20558;-85
2023/01/06 01:39:47;;;;;;;1.52;1.42;;;;;;;-20.40;74.82;98820.94;4918379;29;20454;-85
2023/01/06 01:42:18;;;;;;;1.58;1.48;;;;;;;-20.33;74.88;98840.31;4939209;29;20044;-86
2023/01/06 01:44:57;;;;;;;1.63;1.52;;;;;;;-20.39;75.02;98830.28;4956488;29;20466;-84
2023/01/06 01:47:45;;;;;;;1.50;1.40;;;;;;;-20.40;74.94;98844.03;4934395;29;20048;-85
2023/01/06 01:50:15;;;;;;;1.67;1.58;;;;;;;-20.44;74.78;98837.31;4932562;29;20048;-85
2023/01/06 01:52:44;;;;;;;1.40;1.30;;;;;;;-20.49;74.54;98852.88;4932118;29;20079;-85
2023/01/06 01:55:12;;;;;;;1.60;1.50;;;;;;;-20.56;74.57;98852.28;4932639;29;20601;-85
2023/01/06 01:57:53;;;;;;;1.40;1.30;;;;;;;-20.57;74.62;98854.94;4916473;29;20103;-85
2023/01/06 02:00:21;;;;;;;1.50;1.40;;;;;;;-20.62;74.80;98862.78;4933280;29;20052;-86
2023/01/06 02:02:48;;;;;;;1.80;1.70;;;;;;;-20.67;74.66;98844.13;4932323;29;20066;-86
2023/01/06 02:05:18;;;;;;;1.50;1.40;;;;;;;-20.54;74.68;98861.69;4934196;29;20095;-85
2023/01/06 02:07:46;;;;;;;1.60;1.50;;;;;;;-20.60;74.51;98862.75;4953004;28;20103;-85
2023/01/06 02:10:19;;;;;;;1.60;1.50;;;;;;;-20.61;74.41;98855.91;4919649;29;20051;-85
2023/01/06 02:12:48;;;;;;;1.42;1.33;;;;;;;-20.67;74.42;98856.13;4955377;29;20074;-85
2023/01/06 02:15:35;;;;;;;1.60;1.50;;;;;;;-20.73;74.51;98859.75;4925741;29;20055;-85
2023/01/06 02:18:54;;;;;;;1.60;1.50;;;;;;;-20.77;74.58;98865.88;4955920;29;20095;-85
2023/01/06 02:21:24;;;;;;;1.60;1.50;;;;;;;-20.84;74.66;98866.97;4844717;29;20068;-85
2023/01/06 02:24:11;;;;;;;1.65;1.55;;;;;;;-20.88;74.49;98876.50;4843945;29;20083;-84
2023/01/06 02:26:59;;;;;;;1.70;1.60;;;;;;;-20.89;74.41;98879.13;4858930;29;20071;-85
2023/01/06 02:30:04;;;;;;;1.70;1.60;;;;;;;-20.99;74.39;98879.41;4828587;29;20510;-86
2023/01/06 02:32:50;;;;;;;1.50;1.40;;;;;;;-21.01;74.44;98883.78;4859483;29;20081;-86
2023/01/06 02:36:03;;;;;;;1.73;1.63;;;;;;;-21.11;74.39;98891.81;4860024;29;20509;-87
2023/01/06 02:38:35;;;;;;;1.80;1.70;;;;;;;-21.14;74.12;98895.31;4857090;29;20075;-85
2023/01/06 02:41:14;;;;;;;1.73;1.63;;;;;;;-21.21;73.89;98896.44;4828391;29;20046;-84
2023/01/06 02:44:05;;;;;;;1.70;1.60;;;;;;;-21.17;74.06;98905.69;4859030;29;20517;-85
2023/01/06 02:46:47;;;;;;;1.67;1.58;;;;;;;-21.23;74.07;98905.88;4828544;29;20061;-86
2023/01/06 02:49:41;;;;;;;1.50;1.40;;;;;;;-21.33;74.12;98910.47;4858707;29;20061;-85
2023/01/06 02:52:19;;;;;;;1.60;1.50;;;;;;;-21.33;74.30;98905.34;4888330;29;20060;-85
2023/01/06 02:54:58;;;;;;;1.55;1.45;;;;;;;-21.39;74.01;98910.69;4903877;29;20066;-84
2023/01/06 02:57:35;;;;;;;1.60;1.50;;;;;;;-21.34;74.07;98920.75;4923705;29;20511;-85
2023/01/06 03:00:15;;;;;;;1.50;1.40;;;;;;;-21.32;73.93;98934.34;4930750;29;20052;-85
2023/01/06 03:02:48;;;;;;;1.50;1.40;;;;;;;-21.37;74.00;98936.22;4935236;29;20047;-86
2023/01/06 03:05:16;;;;;;;1.73;1.63;;;;;;;-21.45;73.95;98937.31;4934912;29;20112;-85
2023/01/06 03:07:45;;;;;;;1.60;1.50;;;;;;;-21.48;74.10;98934.88;4927440;29;20131;-85
2023/01/06 03:10:15;;;;;;;1.52;1.42;;;;;;;-21.40;73.78;98941.50;4903827;29;20515;-84
2023/01/06 03:12:47;;;;;;;1.70;1.60;;;;;;;-21.41;73.78;98955.19;4912659;29;20059;-85
2023/01/06 03:15:14;;;;;;;1.60;1.50;;;;;;;-21.45;73.81;98959.56;4935708;29;20052;-85
2023/01/06 03:17:42;;;;;;;1.60;1.50;;;;;;;-21.52;73.70;98948.66;4927000;29;20055;-85
2023/01/06 03:20:10;;;;;;;1.80;1.70;;;;;;;-21.53;73.48;98957.22;4933611;29;20059;-85
2023/01/06 03:22:37;;;;;;;1.73;1.63;;;;;;;-21.52;73.74;98960.63;4934397;29;20570;-85
2023/01/06 03:25:07;;;;;;;1.60;1.50;;;;;;;-21.55;73.69;98964.13;4936013;29;20055;-85
2023/01/06 03:27:37;;;;;;;1.70;1.60;;;;;;;-21.55;73.70;98971.81;4936020;29;20047;-86
2023/01/06 03:30:08;;;;;;;1.60;1.50;;;;;;;-21.62;73.75;98974.59;4930173;29;20146;-86
2023/01/06 03:32:48;;;;;;;1.50;1.40;;;;;;;-21.62;73.69;98983.13;4939995;29;20066;-86
2023/01/06 03:35:33;;;;;;;1.63;1.52;;;;;;;-21.64;73.60;98984.91;4937358;29;20110;-86
2023/01/06 03:38:33;;;;;;;1.95;1.85;;;;;;;-21.73;73.67;98975.75;4929511;29;20146;-86
2023/01/06 03:41:09;;;;;;;1.85;1.75;;;;;;;-21.69;73.72;98982.47;4933663;29;20068;-86
2023/01/06 03:43:39;;;;;;;1.58;1.48;;;;;;;-21.65;73.89;98991.72;4934246;29;20052;-86
2023/01/06 03:46:06;;;;;;;1.80;1.70;;;;;;;-21.66;73.73;98999.47;4918598;29;20699;-86
2023/01/06 03:49:04;;;;;;;1.67;1.58;;;;;;;-21.69;73.56;98997.00;4936307;29;20074;-85
2023/01/06 03:51:59;;;;;;;1.70;1.60;;;;;;;-21.72;73.52;98995.38;4934365;29;20595;-86
2023/01/06 03:54:43;;;;;;;1.70;1.60;;;;;;;-21.74;73.18;99006.56;4918573;29;20144;-86
2023/01/06 03:57:14;;;;;;;1.92;1.83;;;;;;;-21.74;73.37;99006.56;4921656;29;20605;-87
2023/01/06 04:00:05;;;;;;;1.50;1.40;;;;;;;-21.77;73.44;99012.59;4937922;29;20061;-87
2023/01/06 04:02:40;;;;;;;1.55;1.45;;;;;;;-21.80;73.59;99011.81;4940428;29;20051;-85
2023/01/06 04:05:14;;;;;;;1.50;1.40;;;;;;;-21.76;73.82;99016.00;4902884;29;20052;-86
2023/01/06 04:07:43;;;;;;;1.70;1.60;;;;;;;-21.84;73.85;99016.22;4934578;29;20537;-85
2023/01/06 04:10:14;;;;;;;1.83;1.73;;;;;;;-21.75;74.13;99028.75;4934433;29;20137;-85
2023/01/06 04:12:41;;;;;;;1.75;1.65;;;;;;;-21.77;74.05;99034.78;4912475;29;20408;-85
2023/01/06 04:15:14;;;;;;;1.60;1.50;;;;;;;-21.78;74.34;99033.13;4933729;29;20455;-85
2023/01/06 04:17:44;;;;;;;1.83;1.73;;;;;;;-21.80;74.13;99029.75;4910712;29;20086;-85
2023/01/06 04:20:18;;;;;;;1.88;1.77;;;;;;;-21.82;74.41;99028.97;4933082;29;20051;-85
2023/01/06 04:22:48;;;;;;;1.77;1.67;;;;;;;-21.77;74.45;99037.34;4911227;29;20060;-84
2023/01/06 04:25:15;;;;;;;1.80;1.70;;;;;;;-21.76;74.39;99039.88;4933546;29;20130;-84
2023/01/06 04:27:42;;;;;;;1.70;1.60;;;;;;;-21.80;73.97;99042.56;4926285;29;20102;-85
2023/01/06 04:30:10;;;;;;;1.77;1.67;;;;;;;-21.79;74.02;99051.94;4917053;29;20056;-85
2023/01/06 04:32:38;;;;;;;1.60;1.50;;;;;;;-21.84;74.43;99051.22;4918021;29;20150;-85
2023/01/06 04:35:08;;;;;;;1.60;1.50;;;;;;;-21.85;74.53;99057.22;4917737;29;20063;-86
2023/01/06 04:37:35;;;;;;;2.05;1.95;;;;;;;-21.87;74.55;99064.97;4933419;29;20151;-85
2023/01/06 04:40:03;;;;;;;1.63;1.52;;;;;;;-21.95;74.79;99066.88;4928534;29;20413;-85
2023/01/06 04:43:02;;;;;;;1.52;1.42;;;;;;;-22.00;74.60;99069.53;4933412;29;20150;-85
2023/01/06 04:45:17;;;;;;;1.77;1.67;;;;;;;-22.00;74.67;99068.72;4937162;29;20052;-86
2023/01/06 04:47:45;;;;;;;1.80;1.70;;;;;;;-22.03;74.82;99064.50;4937289;29;20047;-85
2023/01/06 04:50:12;;;;;;;1.60;1.50;;;;;;;-22.03;74.66;99071.34;4929695;29;20055;-85
2023/01/06 04:52:41;;;;;;;1.60;1.50;;;;;;;-22.01;74.50;99080.66;4934587;29;20043;-84
2023/01/06 04:55:08;;;;;;;1.80;1.70;;;;;;;-21.99;74.61;99078.91;4914217;29;20063;-85
2023/01/06 04:57:35;;;;;;;1.70;1.60;;;;;;;-22.06;74.62;99069.72;4934271;29;20588;-85
2023/01/06 05:00:04;;;;;;;1.80;1.70;;;;;;;-22.08;74.62;99077.41;4928632;29;20055;-85
2023/01/06 05:02:31;;;;;;;1.80;1.70;;;;;;;-22.08;74.46;99076.59;4929614;29;20224;-84
2023/01/06 05:04:58;;;;;;;1.75;1.65;;;;;;;-22.08;74.44;99079.97;4934664;28;20078;-83
2023/01/06 05:07:25;;;;;;;1.67;1.58;;;;;;;-22.07;74.48;99080.84;4952767;28;20051;-85
2023/01/06 05:09:52;;;;;;;1.65;1.55;;;;;;;-22.13;74.64;99078.44;4933107;29;20138;-85
2023/01/06 05:12:19;;;;;;;1.80;1.70;;;;;;;-22.16;74.50;99078.50;4934440;28;20040;-82
2023/01/06 05:14:46;;;;;;;1.70;1.60;;;;;;;-22.21;74.58;99080.38;4958028;28;20447;-86
2023/01/06 05:17:13;;;;;;;1.60;1.50;;;;;;;-22.32;74.54;99085.78;4949802;28;20051;-85
2023/01/06 05:19:41;;;;;;;1.60;1.50;;;;;;;-22.27;74.81;99094.19;4954021;28;20139;-86
2023/01/06 05:22:10;;;;;;;1.73;1.63;;;;;;;-22.29;74.74;99093.38;4957009;28;20051;-83
2023/01/06 05:24:37;;;;;;;1.60;1.50;;;;;;;-22.25;74.67;99099.25;4941329;28;20170;-87
2023/01/06 05:27:04;;;;;;;1.70;1.60;;;;;;;-22.33;74.88;99100.31;4937607;28;20064;-87
2023/01/06 05:29:32;;;;;;;1.70;1.60;;;;;;;-22.34;74.74;99113.94;4952514;28;20051;-86
2023/01/06 05:31:59;;;;;;;1.60;1.50;;;;;;;-22.38;74.91;99122.59;4954446;29;20060;-86
2023/01/06 05:34:26;;;;;;;1.83;1.73;;;;;;;-22.41;74.80;99122.66;4936103;29;20074;-83
2023/01/06 05:36:53;;;;;;;1.60;1.50;;;;;;;-22.44;74.96;99122.72;4918615;29;20495;-82
2023/01/06 05:39:21;;;;;;;1.60;1.50;;;;;;;-22.51;74.90;99125.47;4917199;29;20054;-83
2023/01/06 05:41:48;;;;;;;1.80;1.70;;;;;;;-22.41;75.14;99138.00;4916617;29;20102;-85
2023/01/06 05:44:15;;;;;;;1.80;1.70;;;;;;;-22.44;75.04;99144.94;4935554;29;20051;-83
2023/01/06 05:46:42;;;;;;;1.85;1.75;;;;;;;-22.43;74.95;99147.44;4920526;29;20052;-85
2023/01/06 05:49:09;;;;;;;1.73;1.63;;;;;;;-22.48;74.48;99146.69;4946126;29;20047;-82
2023/01/06 05:51:37;;;;;;;1.70;1.60;;;;;;;-22.60;74.34;99147.84;4896358;29;20052;-84
2023/01/06 05:54:10;;;;;;;1.80;1.70;;;;;;;-22.59;74.40;99156.34;4936948;29;20065;-83
2023/01/06 05:56:38;;;;;;;1.85;1.75;;;;;;;-22.74;74.33;99152.41;4940102;29;20111;-82
2023/01/06 05:59:05;;;;;;;2.10;2.00;;;;;;;-22.66;74.44;99170.16;4949579;28;20485;-84
2023/01/06 06:01:32;;;;;;;1.92;1.83;;;;;;;-22.68;74.61;99172.75;4947997;29;20110;-83
2023/01/06 06:04:00;;;;;;;2.15;2.05;;;;;;;-22.66;74.94;99180.38;4937784;29;20051;-82
2023/01/06 06:06:28;;;;;;;1.70;1.60;;;;;;;-22.68;75.05;99179.56;4939389;28;20571;-83
2023/01/06 06:08:56;;;;;;;1.95;1.85;;;;;;;-22.70;75.09;99173.66;4955347;29;20150;-85
2023/01/06 06:11:23;;;;;;;1.80;1.70;;;;;;;-22.67;74.83;99188.94;4953271;29;20055;-87
2023/01/06 06:13:55;;;;;;;1.80;1.70;;;;;;;-22.67;74.74;99188.94;4935954;29;20047;-83
2023/01/06 06:16:25;;;;;;;1.70;1.60;;;;;;;-22.58;74.67;99193.84;4951645;29;20051;-82
2023/01/06 06:18:54;;;;;;;1.70;1.60;;;;;;;-22.61;74.64;99204.13;4934717;29;20118;-82
2023/01/06 06:21:25;;;;;;;1.92;1.83;;;;;;;-22.67;74.56;99200.00;4940920;29;20162;-83
2023/01/06 06:23:56;;;;;;;2.03;1.92;;;;;;;-22.62;74.44;99207.59;4952427;29;20067;-82
2023/01/06 06:26:23;;;;;;;1.77;1.67;;;;;;;-22.62;74.55;99210.97;4951673;29;20495;-82
2023/01/06 06:28:51;;;;;;;1.60;1.50;;;;;;;-22.58;74.46;99215.16;4952066;29;20087;-83
2023/01/06 06:31:21;;;;;;;1.80;1.70;;;;;;;-22.61;74.52;99214.38;4952264;28;20051;-83
2023/01/06 06:33:50;;;;;;;1.83;1.73;;;;;;;-22.54;74.54;99226.16;4937385;29;20051;-84
2023/01/06 06:36:18;;;;;;;1.60;1.50;;;;;;;-22.50;74.57;99226.91;4958704;29;20055;-82
2023/01/06 06:38:47;;;;;;;1.80;1.70;;;;;;;-22.49;74.41;99239.69;4937879;29;20073;-84
2023/01/06 06:41:14;;;;;;;1.85;1.75;;;;;;;-22.48;74.62;99237.97;4936219;29;20143;-82
2023/01/06 06:43:47;;;;;;;2.00;1.90;;;;;;;-22.50;74.38;99238.03;4953001;29;20047;-84
2023/01/06 06:46:14;;;;;;;1.73;1.63;;;;;;;-22.64;74.01;99222.94;4953013;29;20481;-84
2023/01/06 06:48:43;;;;;;;1.90;1.80;;;;;;;-22.59;73.95;99245.88;4951893;28;20057;-84
2023/01/06 06:51:15;;;;;;;1.88;1.77;;;;;;;-22.56;73.91;99256.03;4920066;28;20047;-83
2023/01/06 06:53:44;;;;;;;1.85;1.75;;;;;;;-22.55;73.97;99257.75;4927013;29;20047;-83
2023/01/06 06:56:12;;;;;;;1.70;1.60;;;;;;;-22.49;74.05;99278.06;4942757;28;20152;-85
2023/01/06 06:58:39;;;;;;;1.90;1.80;;;;;;;-22.44;73.86;99263.47;4974042;28;20061;-86
2023/01/06 07:01:09;;;;;;;1.70;1.60;;;;;;;-22.40;73.96;99265.09;4951048;28;20146;-83
2023/01/06 07:03:39;;;;;;;1.83;1.73;;;;;;;-22.28;73.80;99268.25;4933902;28;20130;-85
2023/01/06 07:06:08;;;;;;;1.90;1.80;;;;;;;-22.21;73.76;99267.22;4955455;28;20129;-85
2023/01/06 07:08:36;;;;;;;1.80;1.70;;;;;;;-22.04;73.68;99277.06;4940067;28;20056;-85
2023/01/06 07:11:03;;;;;;;1.65;1.55;;;;;;;-21.88;73.50;99273.25;4937904;28;20055;-85
2023/01/06 07:13:30;;;;;;;1.98;1.88;;;;;;;-21.74;73.37;99265.25;4941392;28;20098;-84
2023/01/06 07:15:57;;;;;;;1.75;1.65;;;;;;;-21.62;73.18;99280.31;4970369;28;20055;-84
2023/01/06 07:18:27;;;;;;;1.88;1.77;;;;;;;-21.46;72.81;99281.63;4970611;28;20554;-84
2023/01/06 07:20:54;;;;;;;1.80;1.70;;;;;;;-21.19;72.38;99288.63;4953002;28;20054;-85
2023/01/06 07:23:22;;;;;;;1.85;1.75;;;;;;;-20.90;72.10;99290.44;4970580;28;20567;-83
2023/01/06 07:25:53;;;;;;;1.95;1.85;;;;;;;-20.85;71.27;99279.16;4970782;28;20054;-84
2023/01/06 07:28:20;;;;;;;1.90;1.80;;;;;;;-20.71;70.77;99290.75;4971553;28;20043;-83
2023/01/06 07:30:47;;;;;;;1.73;1.63;;;;;;;-20.64;69.87;99292.25;4945005;28;20127;-84
2023/01/06 07:33:15;;;;;;;1.80;1.70;;;;;;;-20.55;69.42;99302.28;4984771;28;20046;-85
2023/01/06 07:35:45;;;;;;;1.90;1.80;;;;;;;-20.51;69.12;99308.13;4962896;28;20055;-82
2023/01/06 07:38:12;;;;;;;1.83;1.73;;;;;;;-20.39;68.62;99318.03;4979866;28;20060;-84
2023/01/06 07:40:42;;;;;;;1.60;1.50;;;;;;;-20.21;68.49;99320.06;4963521;28;20046;-84
2023/01/06 07:43:11;;;;;;;1.90;1.80;;;;;;;-20.09;68.07;99326.59;4952231;28;20129;-84
2023/01/06 07:45:38;;;;;;;1.70;1.60;;;;;;;-20.06;67.59;99331.63;4934214;29;20402;-85
2023/01/06 07:48:05;;;;;;;1.60;1.50;;;;;;;-19.58;67.48;99330.16;4977339;28;20047;-83
2023/01/06 07:50:33;;;;;;;1.88;1.77;;;;;;;-19.37;66.96;99336.34;4970174;28;20157;-84
2023/01/06 07:53:03;;;;;;;1.75;1.65;;;;;;;-19.16;65.93;99337.34;4953784;28;20121;-86
2023/01/06 07:55:30;;;;;;;1.60;1.50;;;;;;;-19.02;65.21;99333.44;4970668;28;20058;-86
2023/01/06 07:57:58;;;;;;;1.80;1.70;;;;;;;-18.83;65.13;99341.38;4971909;28;20078;-87
2023/01/06 08:00:25;;;;;;;1.98;1.88;;;;;;;-18.72;64.43;99348.69;4956702;28;20429;-86
2023/01/06 08:02:53;;;;;;;1.75;1.65;;;;;;;-18.53;63.89;99348.06;4975953;28;20050;-87
2023/01/06 08:05:21;;;;;;;1.95;1.85;;;;;;;-18.43;63.08;99346.81;4977373;28;20055;-86
2023/01/06 08:07:49;;;;;;;1.85;1.75;;;;;;;-18.23;62.88;99353.84;4961892;28;20051;-83
2023/01/06 08:10:16;;;;;;;1.70;1.60;;;;;;;-17.91;62.24;99360.41;4980460;28;20059;-84
2023/01/06 08:12:43;;;;;;;1.80;1.70;;;;;;;-17.46;61.92;99364.66;4973548;28;20075;-85
2023/01/06 08:15:11;;;;;;;1.60;1.50;;;;;;;-17.41;60.57;99362.75;4972064;28;20054;-86
2023/01/06 08:17:38;;;;;;;1.75;1.65;;;;;;;-17.20;60.15;99368.78;4953150;28;20053;-82
2023/01/06 08:20:06;;;;;;;1.80;1.70;;;;;;;-17.16;59.53;99365.19;4969324;28;20133;-83
2023/01/06 08:22:33;;;;;;;1.77;1.67;;;;;;;-16.88;59.69;99362.31;4951241;29;20047;-83
2023/01/06 08:25:02;;;;;;;1.60;1.50;;;;;;;-16.55;59.24;99364.34;4934056;29;20449;-84
2023/01/06 08:27:29;;;;;;;1.73;1.63;;;;;;;-16.71;57.68;99358.13;4951746;29;20055;-82
2023/01/06 08:29:56;;;;;;;2.13;2.03;;;;;;;-16.94;57.39;99377.19;4933169;29;20162;-83
2023/01/06 08:32:25;;;;;;;1.70;1.60;;;;;;;-16.63;57.81;99382.75;4951505;29;20055;-83
2023/01/06 08:34:53;;;;;;;1.70;1.60;;;;;;;-16.58;57.66;99385.16;4951911;28;20055;-83
2023/01/06 08:37:21;;;;;;;1.98;1.88;;;;;;;-16.40;56.98;99386.94;4951510;28;20054;-84
2023/01/06 08:39:49;;;;;;;1.80;1.70;;;;;;;-16.43;56.81;99383.63;4934536;28;20059;-82
2023/01/06 08:42:18;;;;;;;1.98;1.88;;;;;;;-16.33;56.36;99381.50;4935613;28;20501;-83
2023/01/06 08:44:46;;;;;;;1.60;1.50;;;;;;;-16.41;56.09;99379.25;4916103;28;20054;-82
2023/01/06 08:47:13;;;;;;;1.60;1.50;;;;;;;-17.13;56.90;99406.34;4959777;28;20042;-86
2023/01/06 08:49:40;;;;;;;1.70;1.60;;;;;;;-17.21;57.25;99399.78;4958296;28;20173;-84
2023/01/06 08:52:07;;;;;;;1.65;1.55;;;;;;;-17.95;57.59;99405.22;4932645;28;20055;-84
2023/01/06 08:54:34;;;;;;;1.73;1.63;;;;;;;-18.14;57.82;99411.03;4959591;28;20109;-83
2023/01/06 08:57:04;;;;;;;1.73;1.63;;;;;;;-18.43;58.75;99409.50;4961112;28;20098;-83
2023/01/06 08:59:31;;;;;;;1.70;1.60;;;;;;;-17.88;57.91;99411.84;4932809;28;20059;-83
2023/01/06 09:01:58;;;;;;;2.00;1.90;;;;;;;-16.78;57.28;99411.84;4966192;28;20047;-86
2023/01/06 09:04:25;;;;;;;2.03;1.92;;;;;;;-16.05;56.03;99414.72;4971488;28;20129;-83
2023/01/06 09:06:52;;;;;;;1.63;1.52;;;;;;;-16.99;55.04;99417.88;4972374;28;20068;-83
2023/01/06 09:09:20;;;;;;;1.40;1.30;;;;;;;-18.31;56.38;99428.00;4972872;28;20505;-85
2023/01/06 09:11:47;;;;;;;1.65;1.55;;;;;;;-18.64;57.77;99421.38;4972218;28;20057;-85
2023/01/06 09:14:14;;;;;;;1.70;1.60;;;;;;;-18.78;58.16;99413.31;4941644;28;20070;-86
2023/01/06 09:16:42;;;;;;;2.00;1.90;;;;;;;-17.67;58.26;99411.91;4975621;28;20102;-85
2023/01/06 09:19:09;;;;;;;1.83;1.73;;;;;;;-16.36;56.02;99416.06;4974290;28;20061;-84
2023/01/06 09:21:36;;;;;;;1.95;1.85;;;;;;;-15.85;55.37;99403.50;4975378;28;20055;-84
2023/01/06 09:24:04;;;;;;;2.15;2.03;;;;;;;-15.36;54.74;99401.25;4979753;28;20072;-83
2023/01/06 09:26:31;;;;;;;1.90;1.80;;;;;;;-14.74;53.90;99393.94;4963409;28;20085;-88
2023/01/06 09:28:59;;;;;;;1.83;1.73;;;;;;;-14.92;52.74;99388.75;4977822;28;20051;-92
2023/01/06 09:31:33;;;;;;;1.95;1.85;;;;;;;-14.66;52.53;99381.44;4926019;28;20111;-86
2023/01/06 09:34:00;;;;;;;2.25;2.08;;;;;;;-13.95;52.13;99376.03;4945837;28;20129;-88
2023/01/06 09:36:28;;;;;;;1.77;1.67;;;;;;;-13.33;51.45;99391.75;4970727;28;20061;-87
2023/01/06 09:38:55;;;;;;;1.90;1.80;;;;;;;-13.54;51.12;99392.00;4953530;28;20043;-87
2023/01/06 09:41:31;;;;;;;2.00;1.90;;;;;;;-13.16;51.33;99408.97;4950709;28;20133;-87
2023/01/06 09:44:03;;;;;;;2.00;1.90;;;;;;;-13.15;50.54;99400.25;4971702;28;20082;-87
2023/01/06 09:47:22;;;;;;;2.30;2.10;;;;;;;-14.08;49.38;99406.97;4982608;28;20113;-85
2023/01/06 09:50:17;;;;;;;1.98;1.88;;;;;;;-13.98;50.11;99415.13;4958493;28;20082;-86
2023/01/06 09:53:03;;;;;;;2.00;1.90;;;;;;;-13.48;49.81;99396.03;4937629;28;20062;-90
2023/01/06 09:55:43;;;;;;;1.85;1.75;;;;;;;-13.32;49.57;99421.97;4945949;28;20059;-88
2023/01/06 09:58:21;;;;;;;2.42;2.22;;;;;;;-12.91;49.41;99408.41;4964617;28;20129;-89
2023/01/06 10:01:07;;;;;;;2.05;1.95;;;;;;;-12.55;48.99;99404.66;4964023;28;20136;-89
2023/01/06 10:03:34;;;;;;;1.90;1.80;;;;;;;-12.78;48.34;99409.44;4981771;28;20051;-89
2023/01/06 10:06:26;;;;;;;1.80;1.70;;;;;;;-12.97;48.61;99413.97;4965641;28;20055;-88
2023/01/06 10:09:24;;;;;;;2.40;2.20;;;;;;;-12.90;47.84;99407.50;4960320;28;20077;-90
2023/01/06 10:12:01;;;;;;;2.30;2.10;;;;;;;-13.44;47.27;99414.84;4926078;28;20051;-89
2023/01/06 10:15:11;;;;;;;2.08;1.98;;;;;;;-13.76;47.22;99422.63;4968336;28;20111;-89
2023/01/06 10:18:10;;;;;;;2.30;2.10;;;;;;;-13.95;48.29;99417.53;4989102;28;20070;-90
2023/01/06 10:20:54;;;;;;;2.40;2.20;;;;;;;-12.67;48.03;99416.59;4964154;28;20421;-89
2023/01/06 10:23:31;;;;;;;2.05;1.92;;;;;;;-12.74;47.58;99421.31;4935295;28;20042;-89
2023/01/06 10:26:18;;;;;;;2.00;1.90;;;;;;;-12.89;46.50;99423.00;4979862;28;20058;-89
2023/01/06 10:29:00;;;;;;;2.20;2.03;;;;;;;-13.02;47.52;99428.97;4950645;29;20514;-91
2023/01/06 10:31:56;;;;;;;1.80;1.70;;;;;;;-12.87;46.96;99436.75;4940983;28;20065;-92
2023/01/06 10:34:39;;;;;;;2.05;1.95;;;;;;;-12.81;46.89;99450.34;4895827;29;20071;-90
2023/01/06 10:37:36;;;;;;;2.42;2.22;;;;;;;-13.18;46.25;99449.78;4912699;29;20048;-90
2023/01/06 10:40:24;;;;;;;2.30;2.10;;;;;;;-13.27;46.44;99456.34;4869995;29;20048;-88
2023/01/06 10:43:08;;;;;;;2.28;2.08;;;;;;;-13.57;46.66;99430.25;4876298;29;20052;-89
2023/01/06 10:45:52;;;;;;;2.40;2.20;;;;;;;-12.78;47.07;99435.41;4852580;29;20062;-92
2023/01/06 10:48:32;;;;;;;2.05;1.95;;;;;;;-12.47;46.56;99452.69;4848652;29;20041;-89
2023/01/06 10:51:42;;;;;;;2.00;1.90;;;;;;;-12.80;45.33;99446.81;4872763;29;20086;-88
2023/01/06 10:54:17;;;;;;;2.50;2.30;;;;;;;-13.15;46.00;99447.84;4870794;29;20125;-87
2023/01/06 10:56:52;;;;;;;2.30;2.10;;;;;;;-13.47;45.50;99425.41;4542027;29;10001108;-86
2023/01/06 10:59:19;;;;;;;2.10;1.95;;;;;;;-13.72;46.46;99442.31;4882865;29;20153;-86
2023/01/06 11:01:56;;;;;;;1.77;1.67;;;;;;;-13.48;46.90;99447.94;4858027;29;20144;-88
2023/01/06 11:04:28;;;;;;;1.95;1.85;;;;;;;-12.98;46.28;99444.31;4879165;29;20091;-86
2023/01/06 11:07:01;;;;;;;1.92;1.83;;;;;;;-12.97;45.98;99445.16;4941845;29;20068;-88
2023/01/06 11:09:41;;;;;;;2.45;2.25;;;;;;;-12.81;46.20;99451.19;4927883;29;20056;-87
2023/01/06 11:12:19;;;;;;;2.05;1.92;;;;;;;-13.02;45.83;99457.56;4935517;29;20055;-86
2023/01/06 11:14:58;;;;;;;2.20;2.03;;;;;;;-13.35;45.78;99455.91;4913395;29;20055;-88
2023/01/06 11:17:27;;;;;;;2.33;2.13;;;;;;;-13.66;46.02;99451.53;4972189;28;20536;-87
2023/01/06 11:20:12;;;;;;;2.28;2.08;;;;;;;-13.47;46.51;99453.97;4960105;28;20057;-85
2023/01/06 11:22:41;;;;;;;2.00;1.90;;;;;;;-13.37;45.75;99453.38;4984461;28;20047;-88
2023/01/06 11:25:29;;;;;;;1.77;1.67;;;;;;;-12.91;46.13;99456.06;4972674;28;20066;-89
2023/01/06 11:28:13;;;;;;;2.10;1.95;;;;;;;-12.28;45.86;99454.22;4945555;29;20079;-87
2023/01/06 11:30:50;;;;;;;2.50;2.30;;;;;;;-12.08;45.25;99447.88;4963721;28;20063;-88
2023/01/06 11:33:21;;;;;;;2.30;2.10;;;;;;;-12.85;44.38;99457.47;4977907;28;20031;-89
2023/01/06 11:35:49;;;;;;;2.15;1.98;;;;;;;-13.42;44.98;99465.78;4959488;28;20043;-88
2023/01/06 11:38:17;;;;;;;1.83;1.73;;;;;;;-13.74;46.06;99461.47;4956786;28;20063;-89
2023/01/06 11:40:49;;;;;;;2.35;2.15;;;;;;;-13.33;46.13;99464.47;4961294;28;20443;-90
2023/01/06 11:43:21;;;;;;;2.28;2.08;;;;;;;-13.82;45.94;99460.13;4971278;28;20030;-90
2023/01/06 11:45:58;;;;;;;2.00;1.90;;;;;;;-13.83;45.98;99440.25;4951929;29;20071;-91
2023/01/06 11:48:30;;;;;;;2.28;2.08;;;;;;;-13.99;46.44;99468.75;4956276;28;20058;-89